createdAt,value
2022-10-18T00:00:59.747Z,18.98
2022-10-18T00:03:26.744Z,18.50
2022-10-18T00:05:53.677Z,19.58
2022-10-18T00:08:21.215Z,19.52
2022-10-18T00:10:49.108Z,17.75
2022-10-18T00:13:16.269Z,20.35
2022-10-18T00:15:58.738Z,18.15
2022-10-18T00:18:26.171Z,18.48
2022-10-18T00:21:16.143Z,20.38
2022-10-18T00:23:44.270Z,19.05
2022-10-18T00:26:17.623Z,18.70
2022-10-18T00:28:45.908Z,17.35
2022-10-18T00:31:19.877Z,19.10
2022-10-18T00:33:51.670Z,19.17
2022-10-18T00:36:19.418Z,18.20
2022-10-18T00:38:47.203Z,17.98
2022-10-18T00:41:26.140Z,17.35
2022-10-18T00:44:26.791Z,16.60
2022-10-18T00:46:58.855Z,17.42
2022-10-18T00:49:36.589Z,17.85
2022-10-18T00:52:37.192Z,14.43
2022-10-18T00:55:06.176Z,14.27
2022-10-18T00:57:33.888Z,14.85
2022-10-18T01:00:01.102Z,16.35
2022-10-18T01:02:28.887Z,16.42
2022-10-18T01:04:55.940Z,16.38
2022-10-18T01:07:34.750Z,14.18
2022-10-18T01:10:30.788Z,12.98
2022-10-18T01:13:15.375Z,13.43
2022-10-18T01:16:07.294Z,13.85
2022-10-18T01:19:03.439Z,16.10
2022-10-18T01:21:51.035Z,15.75
2022-10-18T01:24:47.220Z,16.38
2022-10-18T01:27:35.219Z,14.73
2022-10-18T01:30:36.071Z,14.90
2022-10-18T01:33:20.227Z,17.48
2022-10-18T01:36:14.900Z,17.10
2022-10-18T01:38:43.726Z,20.17
2022-10-18T01:41:15.651Z,16.65
2022-10-18T01:43:45.793Z,19.05
2022-10-18T01:46:18.046Z,16.67
2022-10-18T01:48:45.051Z,14.52
2022-10-18T01:51:12.042Z,14.02
2022-10-18T01:53:39.072Z,16.00
2022-10-18T01:56:35.732Z,15.95
2022-10-18T01:59:33.126Z,16.52
2022-10-18T02:02:30.905Z,17.80
2022-10-18T02:05:23.944Z,18.17
2022-10-18T02:08:24.391Z,15.52
2022-10-18T02:11:05.384Z,15.85
2022-10-18T02:13:54.352Z,17.35
2022-10-18T02:16:36.379Z,15.90
2022-10-18T02:19:31.218Z,17.92
2022-10-18T02:21:59.227Z,16.90
2022-10-18T02:24:35.905Z,17.35
2022-10-18T02:27:06.470Z,19.33
2022-10-18T02:29:34.296Z,20.05
2022-10-18T02:32:21.965Z,18.77
2022-10-18T02:35:22.010Z,17.42
2022-10-18T02:37:50.558Z,16.60
2022-10-18T02:40:18.434Z,17.20
2022-10-18T02:42:50.092Z,15.50
2022-10-18T02:45:17.658Z,15.00
2022-10-18T02:47:44.673Z,14.77
2022-10-18T02:50:12.077Z,14.13
2022-10-18T02:52:39.178Z,14.95
2022-10-18T02:55:07.535Z,14.73
2022-10-18T02:57:34.711Z,15.77
2022-10-18T03:00:02.140Z,15.18
2022-10-18T03:02:29.060Z,16.52
2022-10-18T03:04:56.104Z,16.93
2022-10-18T03:07:23.105Z,15.68
2022-10-18T03:09:50.009Z,17.98
2022-10-18T03:12:17.131Z,15.27
2022-10-18T03:14:44.026Z,18.13
2022-10-18T03:17:10.982Z,17.55
2022-10-18T03:19:38.761Z,18.20
2022-10-18T03:22:05.999Z,17.05
2022-10-18T03:24:36.740Z,16.88
2022-10-18T03:27:03.769Z,18.33
2022-10-18T03:29:30.706Z,16.77
2022-10-18T03:31:57.563Z,18.80
2022-10-18T03:34:24.448Z,20.08
2022-10-18T03:36:51.357Z,20.10
2022-10-18T03:39:18.300Z,20.02
2022-10-18T03:41:45.187Z,18.60
2022-10-18T03:44:12.178Z,20.00
2022-10-18T03:46:39.057Z,18.23
2022-10-18T03:49:05.953Z,18.67
2022-10-18T03:51:32.936Z,17.95
2022-10-18T03:54:00.767Z,17.65
2022-10-18T03:56:27.686Z,16.30
2022-10-18T03:58:54.584Z,19.25
2022-10-18T04:01:21.539Z,18.33
2022-10-18T04:03:48.554Z,16.88
2022-10-18T04:06:15.505Z,17.40
2022-10-18T04:08:42.390Z,16.80
2022-10-18T04:11:10.874Z,15.32
2022-10-18T04:13:41.021Z,16.38
2022-10-18T04:16:08.101Z,13.93
2022-10-18T04:18:35.030Z,13.63
2022-10-18T04:21:02.019Z,14.38
2022-10-18T04:23:28.933Z,17.50
2022-10-18T04:25:55.819Z,15.65
2022-10-18T04:28:22.857Z,16.27
2022-10-18T04:30:54.427Z,16.90
2022-10-18T04:33:21.717Z,18.33
2022-10-18T04:35:52.687Z,17.33
2022-10-18T04:38:20.290Z,16.75
2022-10-18T04:40:47.218Z,16.57
2022-10-18T04:43:14.143Z,17.37
2022-10-18T04:45:41.023Z,17.73
2022-10-18T04:48:08.481Z,17.00
2022-10-18T04:50:35.345Z,17.88
2022-10-18T04:53:02.256Z,17.17
2022-10-18T04:55:29.141Z,15.40
2022-10-18T04:57:56.141Z,16.20
2022-10-18T05:00:23.232Z,15.55
2022-10-18T05:02:50.116Z,17.42
2022-10-18T05:05:17.376Z,13.63
2022-10-18T05:07:44.300Z,13.43
2022-10-18T05:10:11.249Z,14.00
2022-10-18T05:12:43.754Z,12.73
2022-10-18T05:15:10.924Z,13.87
2022-10-18T05:17:37.845Z,14.53
2022-10-18T05:20:05.310Z,15.80
2022-10-18T05:22:32.748Z,15.80
2022-10-18T05:24:59.882Z,14.83
2022-10-18T05:27:28.401Z,14.80
2022-10-18T05:29:55.388Z,16.47
2022-10-18T05:32:22.388Z,15.40
2022-10-18T05:34:49.265Z,17.10
2022-10-18T05:37:16.211Z,15.00
2022-10-18T05:39:43.156Z,14.13
2022-10-18T05:42:10.907Z,13.27
2022-10-18T05:44:37.804Z,13.03
2022-10-18T05:47:04.753Z,14.50
2022-10-18T05:49:31.639Z,13.87
2022-10-18T05:51:58.506Z,15.40
2022-10-18T05:54:25.402Z,13.73
2022-10-18T05:56:52.345Z,12.33
2022-10-18T05:59:19.312Z,9.80
2022-10-18T06:01:46.209Z,9.40
2022-10-18T06:04:13.078Z,10.27
2022-10-18T06:06:40.252Z,11.17
2022-10-18T06:09:08.605Z,11.03
2022-10-18T06:11:37.037Z,12.33
2022-10-18T06:14:04.994Z,12.47
2022-10-18T06:16:32.753Z,11.20
2022-10-18T06:19:00.138Z,11.93
2022-10-18T06:21:27.760Z,12.63
2022-10-18T06:23:59.406Z,12.33
2022-10-18T06:26:28.353Z,18.27
2022-10-18T06:28:55.445Z,16.67
2022-10-18T06:31:22.553Z,22.60
2022-10-18T06:33:49.989Z,16.30
2022-10-18T06:36:22.273Z,17.83
2022-10-18T06:38:49.518Z,15.50
2022-10-18T06:41:19.183Z,16.07
2022-10-18T06:43:56.830Z,12.00
2022-10-18T06:46:24.391Z,9.13
2022-10-18T06:48:51.767Z,8.13
2022-10-18T06:51:18.817Z,9.27
2022-10-18T06:53:59.241Z,8.00
2022-10-18T06:56:32.665Z,12.23
2022-10-18T07:01:31.438Z,12.40
2022-10-18T07:03:58.470Z,13.00
2022-10-18T07:06:25.874Z,12.67
2022-10-18T07:08:54.114Z,14.50
2022-10-18T07:11:25.331Z,14.33
2022-10-18T07:14:00.822Z,15.07
2022-10-18T07:16:27.805Z,13.60
2022-10-18T07:18:54.751Z,14.90
2022-10-18T07:21:24.930Z,16.77
2022-10-18T07:23:52.930Z,17.60
2022-10-18T07:26:29.815Z,16.10
2022-10-18T07:29:07.629Z,17.47
2022-10-18T07:31:34.819Z,14.83
2022-10-18T07:34:04.511Z,15.03
2022-10-18T07:36:31.577Z,14.23
2022-10-18T07:38:59.650Z,14.60
2022-10-18T07:41:26.960Z,16.30
2022-10-18T07:43:54.106Z,16.57
2022-10-18T07:46:22.846Z,16.43
2022-10-18T07:48:50.734Z,15.97
2022-10-18T07:51:20.010Z,15.67
2022-10-18T07:53:47.004Z,14.63
2022-10-18T07:56:17.721Z,14.87
2022-10-18T07:58:46.270Z,14.57
2022-10-18T08:01:14.527Z,14.60
2022-10-18T08:03:42.958Z,14.10
2022-10-18T08:06:12.036Z,13.93
2022-10-18T08:08:40.790Z,15.33
2022-10-18T08:11:18.506Z,13.53
2022-10-18T08:13:45.704Z,14.17
2022-10-18T08:16:17.934Z,13.45
2022-10-18T08:18:45.378Z,13.10
2022-10-18T08:21:14.911Z,12.10
2022-10-18T08:23:42.008Z,12.25
2022-10-18T08:26:15.093Z,12.10
2022-10-18T08:28:46.175Z,13.38
2022-10-18T08:31:21.255Z,12.02
2022-10-18T08:33:48.238Z,13.25
2022-10-18T08:36:17.203Z,15.55
2022-10-18T08:38:44.676Z,16.20
2022-10-18T08:41:45.831Z,16.02
2022-10-18T08:44:32.109Z,16.90
2022-10-18T08:47:05.158Z,18.48
2022-10-18T08:49:46.253Z,18.60
2022-10-18T08:52:55.273Z,16.83
2022-10-18T08:55:37.618Z,15.23
2022-10-18T08:58:24.731Z,13.38
2022-10-18T09:01:25.509Z,13.45
2022-10-18T09:03:55.429Z,12.43
2022-10-18T09:06:34.051Z,11.90
2022-10-18T09:09:40.501Z,12.95
2022-10-18T09:12:38.564Z,11.27
2022-10-18T09:15:33.085Z,9.60
2022-10-18T09:18:36.903Z,5.65
2022-10-18T09:21:37.671Z,6.30
2022-10-18T09:24:15.312Z,6.53
2022-10-18T09:27:05.485Z,6.80
2022-10-18T09:30:02.590Z,6.32
2022-10-18T09:32:54.081Z,6.65
2022-10-18T09:35:49.701Z,6.47
2022-10-18T09:38:22.824Z,6.95
2022-10-18T09:41:05.448Z,7.70
2022-10-18T09:43:53.803Z,8.68
2022-10-18T09:46:25.429Z,8.95
2022-10-18T09:49:00.667Z,9.00
2022-10-18T09:51:34.899Z,10.35
2022-10-18T09:54:32.101Z,10.80
2022-10-18T09:57:27.269Z,9.27
2022-10-18T09:59:54.174Z,10.25
2022-10-18T10:02:23.796Z,9.90
2022-10-18T10:04:51.963Z,11.68
2022-10-18T10:07:24.903Z,11.48
2022-10-18T10:10:24.939Z,10.70
2022-10-18T10:13:23.106Z,9.50
2022-10-18T10:16:01.237Z,10.93
2022-10-18T10:18:34.386Z,10.80
2022-10-18T10:21:06.170Z,9.55
2022-10-18T10:23:49.741Z,9.00
2022-10-18T10:26:28.406Z,8.70
2022-10-18T10:28:55.576Z,9.35
2022-10-18T10:31:25.504Z,8.43
2022-10-18T10:34:14.557Z,7.72
2022-10-18T10:36:54.100Z,8.75
2022-10-18T10:39:23.996Z,8.88
2022-10-18T10:41:59.310Z,8.07
2022-10-18T10:44:33.137Z,7.40
2022-10-18T10:47:00.589Z,8.02
2022-10-18T10:49:43.094Z,6.80
2022-10-18T10:52:36.671Z,7.90
2022-10-18T10:55:17.008Z,7.05
2022-10-18T10:57:52.624Z,8.13
2022-10-18T11:00:45.677Z,7.20
2022-10-18T11:03:28.931Z,6.55
2022-10-18T11:05:58.231Z,6.75
2022-10-18T11:08:31.798Z,6.05
2022-10-18T11:11:20.730Z,6.90
2022-10-18T11:14:07.218Z,6.95
2022-10-18T11:17:33.308Z,6.85
2022-10-18T11:20:15.558Z,6.22
2022-10-18T11:23:01.225Z,5.85
2022-10-18T11:26:07.890Z,6.22
2022-10-18T11:28:55.677Z,5.30
2022-10-18T11:31:33.838Z,6.05
2022-10-18T11:34:38.211Z,4.85
2022-10-18T11:37:52.420Z,4.57
2022-10-18T11:40:49.818Z,5.50
2022-10-18T11:44:00.442Z,4.60
2022-10-18T11:46:28.030Z,4.60
2022-10-18T11:49:19.095Z,5.50
2022-10-18T11:52:09.365Z,4.55
2022-10-18T11:55:12.689Z,4.45
2022-10-18T11:57:44.508Z,4.57
2022-10-18T12:03:33.775Z,4.75
2022-10-18T12:06:06.348Z,4.10
2022-10-18T12:08:50.907Z,4.82
2022-10-18T12:11:36.974Z,3.42
2022-10-18T12:14:17.260Z,3.60
2022-10-18T12:16:51.442Z,4.10
2022-10-18T12:19:33.017Z,4.00
2022-10-18T12:22:22.453Z,3.47
2022-10-18T12:24:49.338Z,3.40
2022-10-18T12:27:17.676Z,3.75
2022-10-18T12:29:58.729Z,4.55
2022-10-18T12:32:32.013Z,5.25
2022-10-18T12:35:12.880Z,5.13
2022-10-18T12:38:03.163Z,4.65
2022-10-18T12:40:40.929Z,4.40
2022-10-18T12:43:14.603Z,4.25
2022-10-18T12:45:57.918Z,4.90
2022-10-18T12:48:42.625Z,5.18
2022-10-18T12:51:22.090Z,4.65
2022-10-18T12:53:54.987Z,5.45
2022-10-18T12:56:43.354Z,5.35
2022-10-18T12:59:16.172Z,4.70
2022-10-18T13:01:52.698Z,3.97
2022-10-18T13:04:28.919Z,4.95
2022-10-18T13:06:59.581Z,4.43
2022-10-18T13:09:30.277Z,5.10
2022-10-18T13:12:13.033Z,4.03
2022-10-18T13:15:24.874Z,4.30
2022-10-18T13:18:20.965Z,4.20
2022-10-18T13:21:19.425Z,3.47
2022-10-18T13:24:26.314Z,3.35
2022-10-18T13:27:42.673Z,3.67
2022-10-18T13:30:40.186Z,2.92
2022-10-18T13:33:35.784Z,3.05
2022-10-18T13:36:22.570Z,2.95
2022-10-18T13:38:57.685Z,2.92
2022-10-18T13:41:42.464Z,2.67
2022-10-18T13:44:19.627Z,2.55
2022-10-18T13:46:46.647Z,2.78
2022-10-18T13:49:28.405Z,2.47
2022-10-18T13:52:17.002Z,2.40
2022-10-18T13:55:21.121Z,2.80
2022-10-18T13:58:12.600Z,2.75
2022-10-18T14:01:31.171Z,2.30
2022-10-18T14:04:39.082Z,2.80
2022-10-18T14:07:08.552Z,2.83
2022-10-18T14:09:55.529Z,2.70
2022-10-18T14:12:46.701Z,2.67
2022-10-18T14:15:24.253Z,2.95
2022-10-18T14:18:01.742Z,3.00
2022-10-18T14:20:49.416Z,2.67
2022-10-18T14:23:31.613Z,2.63
2022-10-18T14:26:10.081Z,2.60
2022-10-18T14:28:58.670Z,2.30
2022-10-18T14:31:24.006Z,2.83
2022-10-18T14:33:58.101Z,2.45
2022-10-18T14:36:41.827Z,2.83
2022-10-18T14:39:22.771Z,2.50
2022-10-18T14:41:55.580Z,2.53
2022-10-18T14:44:32.995Z,2.53
2022-10-18T14:47:15.933Z,2.55
2022-10-18T14:49:45.112Z,2.60
2022-10-18T14:52:20.402Z,2.50
2022-10-18T14:54:48.408Z,2.30
2022-10-18T14:57:37.024Z,2.63
2022-10-18T15:00:25.569Z,2.75
2022-10-18T15:02:52.597Z,2.47
2022-10-18T15:05:25.037Z,2.58
2022-10-18T15:07:53.693Z,2.28
2022-10-18T15:10:33.110Z,1.92
2022-10-18T15:13:11.078Z,2.30
2022-10-18T15:15:39.457Z,2.70
2022-10-18T15:18:07.037Z,2.17
2022-10-18T15:20:42.314Z,2.55
2022-10-18T15:23:25.785Z,2.45
2022-10-18T15:26:02.109Z,2.25
2022-10-18T15:28:31.914Z,2.80
2022-10-18T15:31:01.649Z,3.15
2022-10-18T15:33:34.363Z,3.80
2022-10-18T15:36:17.760Z,3.80
2022-10-18T15:38:47.579Z,4.18
2022-10-18T15:41:41.506Z,4.10
2022-10-18T15:44:49.207Z,4.15
2022-10-18T15:47:21.529Z,3.50
2022-10-18T15:49:57.918Z,3.60
2022-10-18T15:52:41.909Z,3.47
2022-10-18T15:55:30.368Z,2.92
2022-10-18T15:58:19.217Z,3.05
2022-10-18T16:00:48.128Z,2.83
2022-10-18T16:03:16.478Z,2.25
2022-10-18T16:05:44.016Z,2.20
2022-10-18T16:08:24.493Z,2.65
2022-10-18T16:10:52.242Z,2.65
2022-10-18T16:13:19.331Z,2.20
2022-10-18T16:15:46.630Z,2.45
2022-10-18T16:18:17.080Z,2.50
2022-10-18T16:20:44.323Z,2.60
2022-10-18T16:23:28.720Z,2.45
2022-10-18T16:25:56.146Z,2.25
2022-10-18T16:28:25.798Z,1.98
2022-10-18T16:31:00.334Z,2.17
2022-10-18T16:33:27.932Z,2.15
2022-10-18T16:35:54.934Z,2.30
2022-10-18T16:38:39.153Z,2.40
2022-10-18T16:41:08.304Z,2.42
2022-10-18T16:43:35.734Z,2.40
2022-10-18T16:46:03.823Z,3.05
2022-10-18T16:48:30.798Z,2.70
2022-10-18T16:50:58.222Z,2.70
2022-10-18T16:53:26.288Z,2.45
2022-10-18T16:55:57.708Z,2.55
2022-10-18T16:58:27.240Z,2.42
2022-10-18T17:00:54.352Z,2.40
2022-10-18T17:03:21.710Z,3.08
2022-10-18T17:05:48.635Z,2.88
2022-10-18T17:08:35.838Z,2.58
2022-10-18T17:11:03.724Z,2.55
2022-10-18T17:13:30.704Z,2.72
2022-10-18T17:15:59.686Z,2.72
2022-10-18T17:18:27.526Z,2.83
2022-10-18T17:20:54.649Z,3.08
2022-10-18T17:23:21.614Z,3.03
2022-10-18T17:26:04.731Z,2.92
2022-10-18T17:28:34.808Z,3.00
2022-10-18T17:31:01.747Z,3.83
2022-10-18T17:33:28.692Z,3.67
2022-10-18T17:35:55.609Z,3.55
2022-10-18T17:38:22.507Z,3.65
2022-10-18T17:40:49.680Z,3.78
2022-10-18T17:43:16.608Z,3.03
2022-10-18T17:45:54.086Z,3.50
2022-10-18T17:48:21.283Z,3.58
2022-10-18T17:50:48.177Z,3.28
2022-10-18T17:53:16.645Z,3.53
2022-10-18T17:55:43.586Z,3.15
2022-10-18T17:58:10.565Z,9.88
2022-10-18T18:00:37.484Z,10.48
2022-10-18T18:03:04.659Z,6.70
2022-10-18T18:05:34.226Z,5.53
2022-10-18T18:08:04.023Z,4.95
2022-10-18T18:10:33.735Z,4.13
2022-10-18T18:13:01.833Z,4.13
2022-10-18T18:15:28.993Z,3.42
2022-10-18T18:17:57.942Z,4.47
2022-10-18T18:20:26.114Z,3.28
2022-10-18T18:22:53.384Z,3.13
2022-10-18T18:25:20.412Z,3.47
2022-10-18T18:27:47.575Z,4.53
2022-10-18T18:30:17.795Z,10.82
2022-10-18T18:32:44.991Z,7.30
2022-10-18T18:35:11.925Z,9.30
2022-10-18T18:37:38.814Z,15.60
2022-10-18T18:40:06.411Z,9.93
2022-10-18T18:42:33.501Z,4.45
2022-10-18T18:45:00.621Z,4.37
2022-10-18T18:47:30.343Z,3.97
2022-10-18T18:49:57.228Z,4.03
2022-10-18T18:52:24.384Z,6.90
2022-10-18T18:54:51.354Z,5.30
2022-10-18T18:57:18.279Z,4.07
2022-10-18T18:59:45.157Z,2.97
2022-10-18T19:02:12.090Z,2.80
2022-10-18T19:04:41.266Z,3.63
2022-10-18T19:07:08.275Z,2.80
2022-10-18T19:09:38.146Z,3.33
2022-10-18T19:12:06.261Z,3.08
2022-10-18T19:14:33.196Z,3.63
2022-10-18T19:17:01.619Z,3.60
2022-10-18T19:19:31.062Z,3.37
2022-10-18T19:22:00.942Z,3.03
2022-10-18T19:24:32.630Z,2.90
2022-10-18T19:27:09.653Z,3.00
2022-10-18T19:29:40.371Z,3.80
2022-10-18T19:32:12.218Z,5.10
2022-10-18T19:34:39.856Z,3.90
2022-10-18T19:37:08.016Z,3.00
2022-10-18T19:39:35.622Z,3.17
2022-10-18T19:42:10.234Z,2.90
2022-10-18T19:44:37.469Z,2.67
2022-10-18T19:47:07.153Z,2.73
2022-10-18T19:49:34.267Z,2.40
2022-10-18T19:52:01.257Z,2.73
2022-10-18T19:54:28.674Z,2.60
2022-10-18T19:56:55.749Z,2.83
2022-10-18T19:59:24.013Z,2.57
2022-10-18T20:01:51.029Z,3.00
2022-10-18T20:04:18.365Z,3.23
2022-10-18T20:06:45.516Z,3.20
2022-10-18T20:09:17.746Z,3.63
2022-10-18T20:11:47.763Z,3.00
2022-10-18T20:14:14.662Z,3.03
2022-10-18T20:16:41.619Z,2.73
2022-10-18T20:19:09.456Z,3.00
2022-10-18T20:21:36.685Z,2.37
2022-10-18T20:24:05.670Z,3.33
2022-10-18T20:26:33.109Z,3.13
2022-10-18T20:29:00.341Z,3.07
2022-10-18T20:31:35.653Z,2.77
2022-10-18T20:34:10.030Z,2.87
2022-10-18T20:36:37.436Z,2.50
2022-10-18T20:39:06.066Z,3.70
2022-10-18T20:41:36.977Z,3.67
2022-10-18T20:44:13.239Z,3.00
2022-10-18T20:46:40.955Z,3.37
2022-10-18T20:49:10.390Z,3.03
2022-10-18T20:51:37.411Z,3.70
2022-10-18T20:54:06.628Z,3.50
2022-10-18T20:56:36.581Z,3.37
2022-10-18T20:59:06.228Z,3.70
2022-10-18T21:01:34.862Z,3.10
2022-10-18T21:04:08.039Z,3.00
2022-10-18T21:06:42.018Z,3.60
2022-10-18T21:09:13.262Z,3.33
2022-10-18T21:11:43.085Z,3.70
2022-10-18T21:14:17.441Z,4.03
2022-10-18T21:16:45.380Z,4.50
2022-10-18T21:19:16.546Z,4.30
2022-10-18T21:21:47.064Z,4.53
2022-10-18T21:24:14.684Z,4.40
2022-10-18T21:26:41.740Z,4.10
2022-10-18T21:29:09.865Z,4.03
2022-10-18T21:31:40.233Z,4.00
2022-10-18T21:34:15.663Z,3.77
2022-10-18T21:36:44.543Z,3.90
2022-10-18T21:41:51.683Z,4.07
2022-10-18T21:44:18.753Z,4.17
2022-10-18T21:46:46.826Z,4.17
2022-10-18T21:49:15.203Z,3.63
2022-10-18T21:51:42.469Z,4.17
2022-10-18T21:54:13.956Z,3.93
2022-10-18T21:56:44.395Z,4.57
2022-10-18T21:59:13.114Z,4.10
2022-10-18T22:01:40.901Z,4.23
2022-10-18T22:04:18.451Z,4.50
2022-10-18T22:06:47.218Z,3.67
2022-10-18T22:09:14.499Z,4.70
2022-10-18T22:11:46.086Z,3.87
2022-10-18T22:14:13.198Z,4.27
2022-10-18T22:16:40.110Z,4.50
2022-10-18T22:19:07.336Z,4.63
2022-10-18T22:21:34.885Z,4.10
2022-10-18T22:24:06.611Z,4.77
2022-10-18T22:26:38.403Z,4.17
2022-10-18T22:29:12.869Z,4.70
2022-10-18T22:31:43.027Z,4.47
2022-10-18T22:34:19.835Z,4.23
2022-10-18T22:36:47.048Z,3.80
2022-10-18T22:39:15.357Z,3.83
2022-10-18T22:41:43.553Z,3.70
2022-10-18T22:44:14.933Z,3.90
2022-10-18T22:46:42.860Z,3.90
2022-10-18T22:49:11.043Z,4.00
2022-10-18T22:51:40.920Z,3.87
2022-10-18T22:54:07.995Z,3.60
2022-10-18T22:56:35.149Z,4.03
2022-10-18T22:59:02.121Z,3.40
2022-10-18T23:01:29.060Z,3.20
2022-10-18T23:03:58.594Z,2.80
2022-10-18T23:06:34.662Z,2.77
2022-10-18T23:09:06.389Z,2.80
2022-10-18T23:11:35.299Z,3.23
2022-10-18T23:14:04.506Z,3.40
2022-10-18T23:16:31.921Z,3.60
2022-10-18T23:18:59.953Z,3.70
2022-10-18T23:21:29.043Z,2.80
2022-10-18T23:23:57.426Z,3.30
2022-10-18T23:26:27.451Z,3.00
2022-10-18T23:28:55.838Z,2.93
2022-10-18T23:31:30.650Z,2.93
2022-10-18T23:34:00.440Z,2.87
2022-10-18T23:36:28.263Z,3.20
2022-10-18T23:38:56.040Z,2.93
2022-10-18T23:41:23.315Z,3.30
2022-10-18T23:43:50.334Z,2.90
2022-10-18T23:46:18.638Z,3.20
2022-10-18T23:48:46.258Z,3.57
2022-10-18T23:51:14.208Z,2.73
2022-10-18T23:53:41.460Z,3.57
2022-10-18T23:56:14.616Z,3.10
2022-10-18T23:58:42.902Z,3.30
